KBLM/BLM METAR and TAF weather

Enter ICAO airport designator
Station Type Date Time Source
KBLM METAR 2020/07/02 18:56 UTC NOAA

KBLM 021856Z AUTO VRB03KT 10SM SCT050 BKN080 32/19 A2982 RMK AO2 SLP097 T03220194


Station Type Date Time Source
KBLM Decoded METAR 2020/07/02 18:56 UTC NOAA

Belmar-Farmingdale, NJ, United States (KBLM) 40-11N 074-08W
Jul 02, 2020 - 02:56 PM EDT / 2020.07.02 1856 UTC
Wind: Variable at 3 MPH (3 KT):0
Visibility: 10 mile(s):0
Sky conditions: mostly cloudy
Temperature: 90.0 F (32.2 C)
Dew Point: 66.9 F (19.4 C)
Relative Humidity: 46%
Pressure (altimeter): 29.82 in. Hg (1009 hPa)
ob: KBLM 021856Z AUTO VRB03KT 10SM SCT050 BKN080 32/19 A2982 RMK AO2 SLP097 T03220194
cycle: 19

Station Type Date Time Source
KBLM TAF UTC NOAA

Error!

Example: see airport list